createdAt,value
2022-07-30T00:04:47.683Z,2.30
2022-07-30T00:09:49.161Z,2.40
2022-07-30T00:14:50.746Z,2.63
2022-07-30T00:19:52.230Z,2.35
2022-07-30T00:24:55.197Z,2.60
2022-07-30T00:29:56.698Z,2.53
2022-07-30T00:34:58.320Z,2.75
2022-07-30T00:39:59.948Z,2.65
2022-07-30T00:45:01.478Z,3.15
2022-07-30T00:50:04.524Z,2.92
2022-07-30T00:55:07.928Z,2.65
2022-07-30T01:00:12.747Z,3.05
2022-07-30T01:05:14.691Z,3.25
2022-07-30T01:10:16.309Z,2.90
2022-07-30T01:15:18.788Z,3.30
2022-07-30T01:20:28.619Z,3.30
2022-07-30T01:25:52.912Z,3.13
2022-07-30T01:30:58.064Z,2.92
2022-07-30T01:36:00.681Z,3.15
2022-07-30T01:41:03.737Z,3.05
2022-07-30T01:46:06.784Z,3.55
2022-07-30T01:51:10.069Z,3.35
2022-07-30T01:56:16.893Z,3.13
2022-07-30T02:01:18.792Z,3.13
2022-07-30T02:06:23.240Z,3.47
2022-07-30T02:11:43.289Z,3.35
2022-07-30T02:16:49.354Z,3.27
2022-07-30T02:21:58.108Z,3.45
2022-07-30T02:27:04.418Z,3.72
2022-07-30T02:32:09.695Z,3.50
2022-07-30T02:37:14.424Z,3.88
2022-07-30T02:42:16.879Z,3.38
2022-07-30T02:47:25.632Z,3.40
2022-07-30T02:52:28.746Z,3.70
2022-07-30T02:57:32.952Z,3.95
2022-07-30T03:02:36.470Z,4.18
2022-07-30T03:07:42.081Z,3.72
2022-07-30T03:12:46.049Z,3.65
2022-07-30T03:17:52.216Z,3.95
2022-07-30T03:22:55.054Z,3.95
2022-07-30T03:27:57.887Z,4.63
2022-07-30T03:32:59.876Z,4.72
2022-07-30T03:38:02.467Z,4.20
2022-07-30T03:43:04.320Z,4.20
2022-07-30T03:48:20.224Z,4.13
2022-07-30T03:53:25.001Z,4.03
2022-07-30T03:58:26.559Z,4.05
2022-07-30T04:03:31.700Z,4.20
2022-07-30T04:08:33.295Z,4.00
2022-07-30T04:13:34.763Z,4.22
2022-07-30T04:18:45.060Z,3.55
2022-07-30T04:24:02.269Z,4.47
2022-07-30T04:29:09.404Z,3.65
2022-07-30T04:34:15.894Z,3.67
2022-07-30T04:39:17.435Z,3.53
2022-07-30T04:44:19.895Z,4.07
2022-07-30T04:49:22.860Z,3.40
2022-07-30T04:54:25.438Z,3.35
2022-07-30T04:59:28.499Z,3.70
2022-07-30T05:04:32.454Z,3.80
2022-07-30T05:09:34.532Z,3.13
2022-07-30T05:14:36.050Z,2.47
2022-07-30T05:19:37.557Z,2.58
2022-07-30T05:24:39.035Z,1.92
2022-07-30T05:29:40.491Z,2.35
2022-07-30T05:34:43.121Z,2.25
2022-07-30T05:40:02.702Z,2.53
2022-07-30T05:45:05.765Z,2.63
2022-07-30T05:50:07.535Z,2.60
2022-07-30T05:55:09.750Z,2.45
2022-07-30T06:00:12.080Z,2.25
2022-07-30T06:05:13.544Z,2.33
2022-07-30T06:10:15.039Z,2.00
2022-07-30T06:15:20.560Z,1.70
2022-07-30T06:20:27.495Z,2.10
2022-07-30T06:25:28.966Z,1.88
2022-07-30T06:30:31.269Z,1.88
2022-07-30T06:35:34.270Z,2.10
2022-07-30T06:40:35.781Z,1.80
2022-07-30T06:45:37.432Z,2.28
2022-07-30T06:50:39.308Z,2.38
2022-07-30T06:55:40.842Z,2.22
2022-07-30T07:00:44.791Z,2.40
2022-07-30T07:05:46.255Z,2.58
2022-07-30T07:10:47.755Z,2.05
2022-07-30T07:15:49.376Z,2.40
2022-07-30T07:20:50.867Z,2.67
2022-07-30T07:25:52.399Z,1.90
2022-07-30T07:30:53.917Z,2.47
2022-07-30T07:35:55.477Z,2.40
2022-07-30T07:40:56.946Z,2.30
2022-07-30T07:45:59.121Z,1.80
2022-07-30T07:51:01.028Z,2.00
2022-07-30T07:56:02.754Z,1.75
2022-07-30T08:01:05.862Z,1.77
2022-07-30T08:06:10.804Z,2.40
2022-07-30T08:11:14.778Z,1.60
2022-07-30T08:16:16.338Z,1.60
2022-07-30T08:21:17.980Z,2.03
2022-07-30T08:26:19.566Z,1.77
2022-07-30T08:31:21.023Z,1.52
2022-07-30T08:36:25.777Z,1.83
2022-07-30T08:41:28.329Z,1.73
2022-07-30T08:46:33.314Z,1.70
2022-07-30T08:51:35.736Z,1.58
2022-07-30T08:56:37.563Z,1.40
2022-07-30T09:01:39.133Z,1.40
2022-07-30T09:06:40.967Z,1.33
2022-07-30T09:11:44.356Z,1.20
2022-07-30T09:16:46.359Z,1.00
2022-07-30T09:21:58.965Z,1.00
2022-07-30T09:27:03.256Z,1.10
2022-07-30T09:32:09.597Z,1.30
2022-07-30T09:37:12.713Z,2.00
2022-07-30T09:42:23.524Z,1.05
2022-07-30T09:47:34.479Z,1.33
2022-07-30T09:52:43.912Z,1.38
2022-07-30T09:58:02.137Z,1.42
2022-07-30T10:03:21.793Z,1.95
2022-07-30T10:08:50.705Z,1.50
2022-07-30T10:13:57.894Z,1.13
2022-07-30T10:19:00.676Z,1.48
2022-07-30T10:24:02.334Z,1.90
2022-07-30T10:29:04.894Z,1.20
2022-07-30T10:34:07.683Z,1.30
2022-07-30T10:39:13.309Z,1.45
2022-07-30T10:44:28.207Z,1.80
2022-07-30T10:49:30.320Z,1.40
2022-07-30T10:54:47.340Z,1.52
2022-07-30T11:00:03.740Z,1.60
2022-07-30T11:05:18.120Z,1.65
2022-07-30T11:10:40.229Z,1.27
2022-07-30T11:16:11.657Z,1.20
2022-07-30T11:21:16.129Z,1.20
2022-07-30T11:26:40.902Z,1.38
2022-07-30T11:31:56.536Z,1.08
2022-07-30T11:37:21.815Z,0.93
2022-07-30T11:47:36.083Z,1.45
2022-07-30T11:52:37.680Z,1.23
2022-07-30T11:57:40.519Z,1.00
2022-07-30T12:02:42.096Z,1.17
2022-07-30T12:07:43.652Z,1.02
2022-07-30T12:12:45.947Z,1.00
2022-07-30T12:17:47.416Z,1.08
2022-07-30T12:22:48.991Z,0.77
2022-07-30T12:27:52.393Z,1.10
2022-07-30T12:32:54.018Z,1.00
2022-07-30T12:38:03.371Z,0.80
2022-07-30T12:43:04.906Z,1.10
2022-07-30T12:48:15.197Z,1.00
2022-07-30T12:53:16.963Z,0.88
2022-07-30T12:58:18.420Z,1.00
2022-07-30T13:03:21.971Z,0.95
2022-07-30T13:08:49.406Z,0.75
2022-07-30T13:13:51.684Z,0.68
2022-07-30T13:18:53.310Z,0.75
2022-07-30T13:23:54.843Z,1.08
2022-07-30T13:29:01.376Z,1.08
2022-07-30T13:34:04.726Z,1.08
2022-07-30T13:39:06.348Z,1.00
2022-07-30T13:44:07.842Z,0.80
2022-07-30T13:49:10.770Z,1.00
2022-07-30T13:54:12.562Z,0.60
2022-07-30T13:59:15.457Z,0.80
2022-07-30T14:04:16.945Z,0.60
2022-07-30T14:09:18.428Z,0.65
2022-07-30T14:14:20.110Z,0.95
2022-07-30T14:19:23.174Z,0.82
2022-07-30T14:24:28.096Z,0.68
2022-07-30T14:29:29.579Z,0.60
2022-07-30T14:34:31.062Z,0.55
2022-07-30T14:39:33.324Z,1.10
2022-07-30T14:44:34.879Z,1.40
2022-07-30T14:49:36.485Z,0.40
2022-07-30T14:54:38.725Z,0.50
2022-07-30T14:59:40.150Z,0.70
2022-07-30T15:04:41.897Z,0.60
2022-07-30T15:09:43.398Z,0.70
2022-07-30T15:14:48.211Z,0.57
2022-07-30T15:19:51.189Z,0.85
2022-07-30T15:24:53.091Z,0.50
2022-07-30T15:29:54.689Z,0.60
2022-07-30T15:34:56.457Z,0.57
2022-07-30T15:39:57.994Z,0.50
2022-07-30T15:45:16.665Z,0.50
2022-07-30T15:50:19.430Z,0.50
2022-07-30T15:55:20.873Z,0.90
2022-07-30T16:00:23.010Z,0.40
2022-07-30T16:05:24.705Z,0.60
2022-07-30T16:10:26.227Z,0.47
2022-07-30T16:15:27.819Z,0.60
2022-07-30T16:20:29.327Z,0.47
2022-07-30T16:25:30.847Z,0.50
2022-07-30T16:30:32.336Z,0.70
2022-07-30T16:35:33.808Z,0.50
2022-07-30T16:40:51.005Z,0.70
2022-07-30T16:45:52.624Z,0.70
2022-07-30T16:50:54.851Z,0.95
2022-07-30T16:55:59.468Z,0.65
2022-07-30T17:01:00.990Z,0.68
2022-07-30T17:06:02.533Z,0.50
2022-07-30T17:11:09.783Z,0.50
2022-07-30T17:16:13.339Z,0.40
2022-07-30T17:21:15.056Z,0.60
2022-07-30T17:26:16.830Z,0.38
2022-07-30T17:31:18.288Z,0.50
2022-07-30T17:36:20.054Z,0.40
2022-07-30T17:41:21.521Z,0.47
2022-07-30T17:46:23.145Z,0.30
2022-07-30T17:51:24.802Z,0.40
2022-07-30T17:56:26.903Z,0.30
2022-07-30T18:01:29.023Z,0.45
2022-07-30T18:06:30.620Z,0.50
2022-07-30T18:11:32.596Z,0.40
2022-07-30T18:16:34.148Z,0.75
2022-07-30T18:21:35.844Z,0.47
2022-07-30T18:26:40.283Z,0.50
2022-07-30T18:31:41.775Z,0.60
2022-07-30T18:36:43.406Z,0.52
2022-07-30T18:41:44.877Z,0.60
2022-07-30T18:46:46.535Z,0.50
2022-07-30T18:51:48.241Z,0.50
2022-07-30T18:56:49.749Z,0.43
2022-07-30T19:01:51.270Z,0.43
2022-07-30T19:06:53.280Z,0.63
2022-07-30T19:11:54.740Z,0.65
2022-07-30T19:16:59.417Z,0.40
2022-07-30T19:22:01.991Z,0.70
2022-07-30T19:27:04.398Z,0.68
2022-07-30T19:32:06.583Z,0.40
2022-07-30T19:37:08.329Z,0.60
2022-07-30T19:42:09.825Z,0.85
2022-07-30T19:47:11.849Z,1.13
2022-07-30T19:52:23.621Z,1.10
2022-07-30T19:57:53.044Z,0.90
2022-07-30T20:02:49.270Z,1.02
2022-07-30T20:07:50.807Z,1.25
2022-07-30T20:12:56.031Z,1.10
2022-07-30T20:17:58.409Z,0.90
2022-07-30T20:22:59.987Z,1.05
2022-07-30T20:28:01.828Z,1.30
2022-07-30T20:33:04.381Z,1.20
2022-07-30T20:38:10.176Z,1.20
2022-07-30T20:43:11.914Z,1.17
2022-07-30T20:48:17.367Z,1.33
2022-07-30T20:58:48.997Z,1.10
2022-07-30T21:03:50.494Z,1.27
2022-07-30T21:08:51.961Z,1.70
2022-07-30T21:13:53.969Z,2.17
2022-07-30T21:18:56.629Z,1.60
2022-07-30T21:23:59.289Z,1.30
2022-07-30T21:29:01.639Z,1.25
2022-07-30T21:34:03.132Z,1.00
2022-07-30T21:39:05.203Z,1.10
2022-07-30T21:44:07.022Z,1.15
2022-07-30T21:49:08.685Z,0.80
2022-07-30T21:54:10.192Z,1.13
2022-07-30T21:59:12.167Z,1.17
2022-07-30T22:04:14.746Z,1.40
2022-07-30T22:09:34.353Z,1.15
2022-07-30T22:14:36.270Z,1.30
2022-07-30T22:19:37.847Z,1.25
2022-07-30T22:24:39.503Z,1.20
2022-07-30T22:29:41.727Z,1.10
2022-07-30T22:34:44.987Z,1.45
2022-07-30T22:39:51.745Z,1.17
2022-07-30T22:44:54.768Z,1.38
2022-07-30T22:49:57.017Z,1.15
2022-07-30T22:55:09.271Z,0.90
2022-07-30T23:00:14.269Z,1.02
2022-07-30T23:05:29.024Z,1.30
2022-07-30T23:10:31.054Z,1.02
2022-07-30T23:12:29.357Z,1.00
2022-07-30T23:15:33.755Z,0.80
2022-07-30T23:20:35.238Z,0.90
2022-07-30T23:25:38.968Z,0.80
2022-07-30T23:30:40.708Z,1.08
2022-07-30T23:35:43.625Z,1.02
2022-07-30T23:40:45.064Z,0.90
2022-07-30T23:45:46.531Z,1.20
2022-07-30T23:50:48.696Z,1.38
2022-07-30T23:55:50.752Z,1.10
